Time;durP1;ratioP1;P1;durP2;ratioP2;P2;SDS_P1;SDS_P2;PMS_P1;PMS_P2;Temp;Humidity;BMP_temperature;BMP_pressure;BME280_temperature;BME280_humidity;BME280_pressure;Samples;Min_cycle;Max_cycle;Signal;HPM_P1;HPM_P2
2022/03/13 00:00:24;;;;;;;37.35;15.75;;;;;;;;;;4975337;28;20031;-51
2022/03/13 00:02:50;;;;;;;29.70;13.32;;;;;;;;;;4976748;28;20372;-49
2022/03/13 00:05:17;;;;;;;30.13;13.68;;;;;;;;;;4977630;28;20527;-50
2022/03/13 00:07:51;;;;;;;33.90;14.55;;;;;;;;;;4977417;28;20113;-54
2022/03/13 00:10:19;;;;;;;41.83;18.60;;;;;;;;;;4977596;28;20114;-51
2022/03/13 00:12:48;;;;;;;38.90;17.10;;;;;;;;;;4977555;28;20027;-51
2022/03/13 00:15:15;;;;;;;27.60;12.35;;;;;;;;;;4977351;28;20538;-49
2022/03/13 00:17:42;;;;;;;35.40;16.83;;;;;;;;;;4976346;28;20126;-50
2022/03/13 00:20:08;;;;;;;18.98;9.73;;;;;;;;;;4977908;28;20026;-50
2022/03/13 00:22:35;;;;;;;26.52;13.10;;;;;;;;;;4977279;28;20023;-56
2022/03/13 00:25:08;;;;;;;24.40;12.02;;;;;;;;;;4978089;28;20403;-49
2022/03/13 00:27:35;;;;;;;23.27;11.52;;;;;;;;;;4977200;28;20033;-52
2022/03/13 00:30:02;;;;;;;28.27;12.07;;;;;;;;;;4977067;28;20039;-49
2022/03/13 00:32:28;;;;;;;28.70;12.88;;;;;;;;;;4977342;28;20031;-48
2022/03/13 00:34:54;;;;;;;64.15;23.30;;;;;;;;;;4977087;28;20443;-50
2022/03/13 00:37:20;;;;;;;38.63;17.10;;;;;;;;;;4977001;28;20115;-49
2022/03/13 00:39:49;;;;;;;65.32;27.23;;;;;;;;;;4977157;28;20031;-49
2022/03/13 00:42:15;;;;;;;63.55;28.92;;;;;;;;;;4976846;28;20122;-49
2022/03/13 00:44:42;;;;;;;78.85;34.80;;;;;;;;;;4977580;28;20023;-48
2022/03/13 00:47:08;;;;;;;71.05;34.63;;;;;;;;;;4976863;28;20023;-51
2022/03/13 00:49:34;;;;;;;66.63;32.03;;;;;;;;;;4976559;28;20050;-53
2022/03/13 00:52:02;;;;;;;68.38;31.45;;;;;;;;;;4977023;28;20072;-47
2022/03/13 00:54:29;;;;;;;45.25;19.73;;;;;;;;;;4976852;28;20077;-49
2022/03/13 00:56:55;;;;;;;101.68;41.17;;;;;;;;;;4976315;28;20042;-50
2022/03/13 00:59:22;;;;;;;95.45;41.17;;;;;;;;;;4976909;28;20019;-49
2022/03/13 01:01:48;;;;;;;76.97;32.83;;;;;;;;;;4976586;28;20047;-51
2022/03/13 01:04:14;;;;;;;100.13;46.78;;;;;;;;;;4976490;28;20471;-48
2022/03/13 01:06:41;;;;;;;95.82;44.42;;;;;;;;;;4976459;28;20023;-52
2022/03/13 01:09:07;;;;;;;95.28;42.97;;;;;;;;;;4976382;28;20058;-47
2022/03/13 01:11:33;;;;;;;98.28;44.13;;;;;;;;;;4975629;28;20138;-54
2022/03/13 01:14:00;;;;;;;93.68;43.20;;;;;;;;;;4976655;28;20042;-52
2022/03/13 01:16:27;;;;;;;99.85;47.17;;;;;;;;;;4977088;28;20022;-50
2022/03/13 01:18:55;;;;;;;108.78;45.85;;;;;;;;;;4976227;28;20054;-53
2022/03/13 01:21:21;;;;;;;87.03;41.05;;;;;;;;;;4976172;28;20365;-53
2022/03/13 01:23:56;;;;;;;83.80;38.00;;;;;;;;;;4976413;28;20073;-51
2022/03/13 01:26:22;;;;;;;69.43;29.13;;;;;;;;;;4976120;28;20379;-53
2022/03/13 01:28:52;;;;;;;35.47;16.25;;;;;;;;;;4976033;28;20077;-48
2022/03/13 01:31:21;;;;;;;37.30;17.40;;;;;;;;;;4975894;28;20027;-47
2022/03/13 01:33:47;;;;;;;35.15;16.73;;;;;;;;;;4976190;28;20039;-52
2022/03/13 01:36:13;;;;;;;38.90;17.55;;;;;;;;;;4976173;28;20027;-52
2022/03/13 01:38:40;;;;;;;37.13;16.42;;;;;;;;;;4976118;28;20031;-49
2022/03/13 01:41:06;;;;;;;182.77;57.47;;;;;;;;;;4976230;28;20086;-57
2022/03/13 01:43:33;;;;;;;51.67;25.05;;;;;;;;;;4975905;28;20105;-48
2022/03/13 01:46:00;;;;;;;46.75;22.17;;;;;;;;;;4975745;28;20015;-50
2022/03/13 01:48:26;;;;;;;72.97;28.73;;;;;;;;;;4976293;28;20374;-49
2022/03/13 01:50:52;;;;;;;49.63;23.17;;;;;;;;;;4976079;28;20476;-47
2022/03/13 01:53:21;;;;;;;54.83;23.25;;;;;;;;;;4975329;28;20027;-52
2022/03/13 01:55:48;;;;;;;56.83;24.08;;;;;;;;;;4975751;28;20058;-50
2022/03/13 01:58:15;;;;;;;94.65;39.22;;;;;;;;;;4975472;28;20391;-47
2022/03/13 02:00:41;;;;;;;83.32;37.17;;;;;;;;;;4975442;28;20101;-52
2022/03/13 02:03:07;;;;;;;100.25;44.97;;;;;;;;;;4975692;28;20034;-51
2022/03/13 02:05:37;;;;;;;90.50;38.17;;;;;;;;;;4975683;28;20022;-49
2022/03/13 02:08:11;;;;;;;68.15;32.88;;;;;;;;;;4975040;28;20023;-53
2022/03/13 02:10:37;;;;;;;103.25;47.63;;;;;;;;;;4975442;28;20046;-51
2022/03/13 02:13:04;;;;;;;98.05;46.05;;;;;;;;;;4976123;28;20031;-57
2022/03/13 02:15:32;;;;;;;111.45;50.60;;;;;;;;;;4974936;28;20365;-52
2022/03/13 02:18:00;;;;;;;150.93;63.85;;;;;;;;;;4975463;28;20019;-53
2022/03/13 02:20:27;;;;;;;152.50;67.63;;;;;;;;;;4974765;28;20029;-49
2022/03/13 02:22:59;;;;;;;163.20;76.75;;;;;;;;;;4974838;28;20449;-50
2022/03/13 02:25:31;;;;;;;154.70;71.35;;;;;;;;;;4974733;28;20050;-51
2022/03/13 02:27:57;;;;;;;163.85;71.63;;;;;;;;;;4974984;28;20031;-52
2022/03/13 02:30:25;;;;;;;150.40;67.93;;;;;;;;;;4975436;28;20531;-50
2022/03/13 02:32:52;;;;;;;152.52;66.63;;;;;;;;;;4975288;28;20376;-48
2022/03/13 02:35:18;;;;;;;105.60;48.63;;;;;;;;;;4974838;28;20038;-51
2022/03/13 02:37:44;;;;;;;68.90;29.95;;;;;;;;;;4975208;28;20456;-50
2022/03/13 02:40:31;;;;;;;63.35;28.27;;;;;;;;;;4974880;28;20382;-54
2022/03/13 02:42:57;;;;;;;56.05;25.60;;;;;;;;;;4974275;28;20030;-52
2022/03/13 02:45:33;;;;;;;50.25;23.38;;;;;;;;;;4975065;28;20110;-51
2022/03/13 02:48:00;;;;;;;54.97;25.77;;;;;;;;;;4975587;28;20480;-51
2022/03/13 02:50:27;;;;;;;49.97;24.05;;;;;;;;;;4974681;28;20093;-49
2022/03/13 02:52:53;;;;;;;53.03;24.88;;;;;;;;;;4974665;28;20069;-51
2022/03/13 02:55:19;;;;;;;51.15;23.98;;;;;;;;;;4974662;28;20027;-50
2022/03/13 02:57:46;;;;;;;56.35;24.15;;;;;;;;;;4975266;28;20035;-52
2022/03/13 03:00:13;;;;;;;46.30;22.83;;;;;;;;;;4974825;28;20026;-52
2022/03/13 03:02:39;;;;;;;32.97;15.93;;;;;;;;;;4974820;28;20107;-51
2022/03/13 03:05:06;;;;;;;32.35;16.02;;;;;;;;;;4974631;28;20550;-54
2022/03/13 03:07:32;;;;;;;30.70;14.90;;;;;;;;;;4974853;28;20023;-53
2022/03/13 03:09:58;;;;;;;25.58;13.35;;;;;;;;;;4974133;28;20423;-51
2022/03/13 03:12:25;;;;;;;30.52;13.45;;;;;;;;;;4975018;28;20026;-52
2022/03/13 03:14:51;;;;;;;31.52;13.95;;;;;;;;;;4974719;28;20062;-49
2022/03/13 03:17:17;;;;;;;32.30;13.73;;;;;;;;;;4974476;28;20041;-55
2022/03/13 03:19:44;;;;;;;28.08;12.98;;;;;;;;;;4974851;28;20041;-50
2022/03/13 03:22:10;;;;;;;31.90;13.45;;;;;;;;;;4974762;28;20076;-52
2022/03/13 03:24:36;;;;;;;29.98;12.77;;;;;;;;;;4974762;28;20365;-49
2022/03/13 03:27:02;;;;;;;33.17;12.88;;;;;;;;;;4974464;28;20037;-53
2022/03/13 03:29:29;;;;;;;26.35;11.00;;;;;;;;;;4974745;28;20027;-51
2022/03/13 03:31:56;;;;;;;69.60;31.65;;;;;;;;;;4974665;28;20027;-48
2022/03/13 03:34:24;;;;;;;63.08;29.40;;;;;;;;;;4974358;28;20026;-53
2022/03/13 03:36:52;;;;;;;79.60;36.80;;;;;;;;;;4978643;28;20102;-53
2022/03/13 03:39:20;;;;;;;62.40;27.65;;;;;;;;;;4978162;28;20027;-52
2022/03/13 03:41:47;;;;;;;43.60;19.50;;;;;;;;;;4978349;28;20027;-50
2022/03/13 03:44:14;;;;;;;44.10;20.08;;;;;;;;;;4977880;28;20034;-49
2022/03/13 03:46:41;;;;;;;71.78;29.40;;;;;;;;;;4977958;28;20563;-56
2022/03/13 03:49:07;;;;;;;57.03;25.60;;;;;;;;;;4978282;28;20034;-51
2022/03/13 03:51:33;;;;;;;55.55;26.17;;;;;;;;;;4977839;28;20038;-52
2022/03/13 03:54:00;;;;;;;52.22;23.60;;;;;;;;;;4978126;28;20034;-51
2022/03/13 03:56:26;;;;;;;53.08;24.65;;;;;;;;;;4978120;28;20030;-50
2022/03/13 03:58:52;;;;;;;56.42;24.50;;;;;;;;;;4977785;28;20019;-54
2022/03/13 04:01:18;;;;;;;41.53;20.08;;;;;;;;;;4977709;28;20030;-48
2022/03/13 04:03:44;;;;;;;50.13;20.92;;;;;;;;;;4978003;28;20023;-51
2022/03/13 04:06:11;;;;;;;38.28;19.30;;;;;;;;;;4977294;28;20023;-48
2022/03/13 04:08:37;;;;;;;39.88;17.80;;;;;;;;;;4977535;28;20035;-53
2022/03/13 04:11:03;;;;;;;39.53;17.95;;;;;;;;;;4977939;28;20035;-53
2022/03/13 04:13:30;;;;;;;31.98;14.23;;;;;;;;;;4977317;28;20383;-52
2022/03/13 04:15:56;;;;;;;31.25;14.57;;;;;;;;;;4977203;28;20027;-52
2022/03/13 04:18:23;;;;;;;34.78;14.82;;;;;;;;;;4977671;28;20022;-54
2022/03/13 04:20:49;;;;;;;31.85;14.65;;;;;;;;;;4977325;28;20037;-56
2022/03/13 04:23:15;;;;;;;34.50;15.23;;;;;;;;;;4977537;28;20452;-51
2022/03/13 04:25:42;;;;;;;35.22;14.90;;;;;;;;;;4977271;28;20365;-54
2022/03/13 04:28:09;;;;;;;32.28;14.43;;;;;;;;;;4976948;28;20384;-55
2022/03/13 04:30:39;;;;;;;29.05;12.98;;;;;;;;;;4977391;28;20042;-54
2022/03/13 04:33:06;;;;;;;25.85;11.82;;;;;;;;;;4977373;28;20110;-52
2022/03/13 04:35:32;;;;;;;22.33;11.40;;;;;;;;;;4976719;28;20472;-53
2022/03/13 04:37:58;;;;;;;28.73;12.45;;;;;;;;;;4977235;28;20027;-53
2022/03/13 04:40:24;;;;;;;31.23;14.23;;;;;;;;;;4976996;28;20078;-49
2022/03/13 04:42:50;;;;;;;33.83;13.57;;;;;;;;;;4977272;28;20041;-52
2022/03/13 04:45:18;;;;;;;26.05;12.98;;;;;;;;;;4976958;28;20492;-53
2022/03/13 04:47:45;;;;;;;29.65;13.73;;;;;;;;;;4975923;28;20395;-52
2022/03/13 04:50:11;;;;;;;27.00;13.60;;;;;;;;;;4977460;28;20066;-48
2022/03/13 04:52:37;;;;;;;32.55;14.13;;;;;;;;;;4976763;28;20027;-46
2022/03/13 04:55:05;;;;;;;28.77;14.70;;;;;;;;;;4976709;28;20031;-49
2022/03/13 04:57:31;;;;;;;93.70;34.60;;;;;;;;;;4976940;28;20027;-55
2022/03/13 04:59:57;;;;;;;50.22;22.52;;;;;;;;;;4976708;28;20395;-50
2022/03/13 05:02:23;;;;;;;47.53;23.65;;;;;;;;;;4976347;28;20487;-49
2022/03/13 05:04:49;;;;;;;58.22;25.80;;;;;;;;;;4976833;28;20027;-47
2022/03/13 05:07:17;;;;;;;55.42;25.58;;;;;;;;;;4976820;28;20027;-52
2022/03/13 05:09:44;;;;;;;60.25;28.30;;;;;;;;;;4976457;28;20051;-56
2022/03/13 05:12:10;;;;;;;73.60;34.10;;;;;;;;;;4976688;28;20112;-50
2022/03/13 05:14:37;;;;;;;43.78;23.35;;;;;;;;;;4976425;28;20034;-50
2022/03/13 05:17:03;;;;;;;121.00;43.63;;;;;;;;;;4976371;28;20069;-48
2022/03/13 05:19:29;;;;;;;40.33;17.73;;;;;;;;;;4976389;28;20038;-50
2022/03/13 05:21:56;;;;;;;43.08;18.30;;;;;;;;;;4976512;28;20019;-51
2022/03/13 05:24:22;;;;;;;43.58;19.20;;;;;;;;;;4976161;28;20026;-50
2022/03/13 05:26:49;;;;;;;40.40;19.25;;;;;;;;;;4976286;28;20027;-48
2022/03/13 05:29:15;;;;;;;37.95;19.33;;;;;;;;;;4975976;28;20368;-51
2022/03/13 05:31:43;;;;;;;72.45;29.75;;;;;;;;;;4975928;28;20065;-50
2022/03/13 05:34:10;;;;;;;58.83;26.88;;;;;;;;;;4976273;28;20086;-50
2022/03/13 05:36:36;;;;;;;65.82;29.23;;;;;;;;;;4975740;28;20588;-51
2022/03/13 05:39:02;;;;;;;64.00;28.63;;;;;;;;;;4976195;28;20053;-49
2022/03/13 05:41:29;;;;;;;57.80;26.58;;;;;;;;;;4976164;28;20041;-48
2022/03/13 05:43:55;;;;;;;53.95;26.02;;;;;;;;;;4975771;28;20025;-55
2022/03/13 05:46:21;;;;;;;58.83;28.73;;;;;;;;;;4976031;28;20026;-53
2022/03/13 05:48:47;;;;;;;70.18;28.25;;;;;;;;;;4975720;28;20472;-50
2022/03/13 05:51:14;;;;;;;66.38;29.25;;;;;;;;;;4975141;28;20451;-52
2022/03/13 05:53:40;;;;;;;55.58;26.60;;;;;;;;;;4976099;28;20034;-49
2022/03/13 05:56:06;;;;;;;52.95;26.73;;;;;;;;;;4976125;28;20027;-48
2022/03/13 05:58:32;;;;;;;50.53;23.27;;;;;;;;;;4975305;28;20101;-50
2022/03/13 06:01:04;;;;;;;49.42;22.52;;;;;;;;;;4975703;28;20027;-48
2022/03/13 06:03:30;;;;;;;40.03;19.77;;;;;;;;;;4976068;28;20023;-50
2022/03/13 06:05:56;;;;;;;41.47;19.52;;;;;;;;;;4975345;28;20427;-49
2022/03/13 06:08:23;;;;;;;46.38;21.88;;;;;;;;;;4975647;28;20027;-48
2022/03/13 06:10:49;;;;;;;45.92;23.42;;;;;;;;;;4975429;28;20031;-47
2022/03/13 06:13:15;;;;;;;289.08;103.53;;;;;;;;;;4975366;28;20037;-48
2022/03/13 06:15:42;;;;;;;49.95;25.73;;;;;;;;;;4975200;28;20539;-53
2022/03/13 06:18:10;;;;;;;47.90;25.55;;;;;;;;;;4975449;28;20026;-51
2022/03/13 06:20:37;;;;;;;53.58;26.75;;;;;;;;;;4975145;28;20486;-50
2022/03/13 06:23:03;;;;;;;47.65;23.70;;;;;;;;;;4975587;28;20037;-51
2022/03/13 06:25:30;;;;;;;55.03;28.83;;;;;;;;;;4974990;28;20031;-52
2022/03/13 06:27:56;;;;;;;54.65;27.92;;;;;;;;;;4975350;28;20530;-50
2022/03/13 06:30:23;;;;;;;56.80;29.05;;;;;;;;;;4974987;28;20033;-49
2022/03/13 06:32:52;;;;;;;51.35;27.02;;;;;;;;;;4974947;28;20023;-47
2022/03/13 06:35:20;;;;;;;51.45;25.98;;;;;;;;;;4975872;28;20031;-49
2022/03/13 06:37:48;;;;;;;52.67;26.90;;;;;;;;;;4975212;28;20027;-49
2022/03/13 06:40:20;;;;;;;49.95;26.35;;;;;;;;;;4974909;28;20027;-51
2022/03/13 06:42:47;;;;;;;48.05;24.92;;;;;;;;;;4975137;28;20023;-52
2022/03/13 06:45:13;;;;;;;48.05;25.67;;;;;;;;;;4975699;28;20364;-50
2022/03/13 06:47:46;;;;;;;50.15;24.58;;;;;;;;;;4974780;28;20031;-49
2022/03/13 06:50:17;;;;;;;46.80;24.13;;;;;;;;;;4974853;28;20042;-49
2022/03/13 06:52:44;;;;;;;48.45;25.35;;;;;;;;;;4974770;28;20031;-49
2022/03/13 06:55:12;;;;;;;45.92;22.90;;;;;;;;;;4974686;28;20025;-52
2022/03/13 06:57:39;;;;;;;43.47;22.55;;;;;;;;;;4975169;28;20368;-51
2022/03/13 07:00:05;;;;;;;43.63;22.35;;;;;;;;;;4974960;28;20088;-51
2022/03/13 07:02:32;;;;;;;38.78;21.73;;;;;;;;;;4974595;28;20476;-47
2022/03/13 07:04:58;;;;;;;37.55;20.35;;;;;;;;;;4974622;28;20135;-50
2022/03/13 07:07:24;;;;;;;39.97;21.77;;;;;;;;;;4974328;28;20081;-56
2022/03/13 07:09:51;;;;;;;45.70;23.08;;;;;;;;;;4975505;28;20526;-55
2022/03/13 07:12:19;;;;;;;45.72;22.20;;;;;;;;;;4978883;28;20026;-51
2022/03/13 07:14:48;;;;;;;47.65;20.25;;;;;;;;;;4978280;28;20050;-51
2022/03/13 07:17:15;;;;;;;43.03;19.48;;;;;;;;;;4978435;28;20073;-50
2022/03/13 07:19:43;;;;;;;40.47;19.73;;;;;;;;;;4978954;28;20073;-48
2022/03/13 07:22:13;;;;;;;38.35;20.60;;;;;;;;;;4978411;28;20034;-52
2022/03/13 07:24:40;;;;;;;37.30;19.08;;;;;;;;;;4978371;28;20475;-49
2022/03/13 07:27:06;;;;;;;34.90;19.65;;;;;;;;;;4978596;28;20034;-50
2022/03/13 07:29:32;;;;;;;39.13;21.25;;;;;;;;;;4978250;28;20023;-51
2022/03/13 07:31:58;;;;;;;37.15;19.50;;;;;;;;;;4978338;28;20049;-50
2022/03/13 07:34:25;;;;;;;38.85;18.80;;;;;;;;;;4978268;28;20383;-53
2022/03/13 07:36:51;;;;;;;37.60;19.23;;;;;;;;;;4977802;28;20031;-52
2022/03/13 07:39:18;;;;;;;44.45;20.73;;;;;;;;;;4978296;28;20027;-51
2022/03/13 07:41:45;;;;;;;40.70;20.70;;;;;;;;;;4977984;28;20472;-56
2022/03/13 07:44:11;;;;;;;41.00;20.77;;;;;;;;;;4977733;28;20042;-52
2022/03/13 07:46:38;;;;;;;33.72;16.52;;;;;;;;;;4978773;28;20031;-52
2022/03/13 07:49:04;;;;;;;35.35;19.30;;;;;;;;;;4978218;28;20025;-52
2022/03/13 07:51:34;;;;;;;25.35;14.38;;;;;;;;;;4977456;28;20039;-51
2022/03/13 07:54:01;;;;;;;20.73;12.50;;;;;;;;;;4984702;28;20032;-48
2022/03/13 07:56:27;;;;;;;24.27;12.10;;;;;;;;;;5008572;28;20173;-51
2022/03/13 07:58:53;;;;;;;29.52;14.93;;;;;;;;;;5014954;28;20045;-50
2022/03/13 08:01:19;;;;;;;27.90;13.73;;;;;;;;;;5013516;28;20097;-53
2022/03/13 08:03:47;;;;;;;22.58;11.80;;;;;;;;;;5010902;28;20052;-51
2022/03/13 08:06:13;;;;;;;21.98;10.98;;;;;;;;;;5016995;28;20030;-49
2022/03/13 08:08:40;;;;;;;19.85;9.93;;;;;;;;;;5016635;28;20442;-51
2022/03/13 08:11:06;;;;;;;19.77;10.68;;;;;;;;;;5016271;28;20437;-50
2022/03/13 08:13:33;;;;;;;22.25;11.75;;;;;;;;;;5017125;28;20454;-50
2022/03/13 08:15:59;;;;;;;17.98;10.38;;;;;;;;;;5016740;28;20535;-50
2022/03/13 08:18:26;;;;;;;24.33;11.40;;;;;;;;;;5016387;28;20022;-54
2022/03/13 08:20:52;;;;;;;27.13;13.18;;;;;;;;;;5016681;28;20479;-54
2022/03/13 08:23:18;;;;;;;30.20;12.60;;;;;;;;;;5009473;28;20371;-52
2022/03/13 08:25:44;;;;;;;18.17;8.77;;;;;;;;;;5016322;28;20186;-50
2022/03/13 08:28:10;;;;;;;22.33;10.60;;;;;;;;;;5003574;28;20053;-52
2022/03/13 08:30:37;;;;;;;34.08;15.73;;;;;;;;;;4996633;28;20031;-48
2022/03/13 08:33:05;;;;;;;24.35;11.98;;;;;;;;;;4996903;28;20360;-52
2022/03/13 08:35:31;;;;;;;22.70;10.30;;;;;;;;;;5016615;28;20026;-48
2022/03/13 08:37:58;;;;;;;23.30;11.25;;;;;;;;;;5016342;28;20033;-50
2022/03/13 08:40:29;;;;;;;21.48;11.93;;;;;;;;;;5015937;28;20105;-47
2022/03/13 08:42:56;;;;;;;24.88;12.10;;;;;;;;;;5016280;28;20068;-64
2022/03/13 08:45:22;;;;;;;22.35;11.90;;;;;;;;;;5015834;28;20022;-55
2022/03/13 08:47:49;;;;;;;23.05;10.88;;;;;;;;;;5016073;28;20129;-51
2022/03/13 08:50:16;;;;;;;19.30;11.73;;;;;;;;;;5015725;28;20046;-53
2022/03/13 08:52:43;;;;;;;21.73;11.90;;;;;;;;;;5015526;28;20037;-52
2022/03/13 08:55:13;;;;;;;20.17;11.30;;;;;;;;;;5015786;28;20419;-52
2022/03/13 08:57:41;;;;;;;24.80;11.00;;;;;;;;;;5016038;28;20037;-50
2022/03/13 09:00:10;;;;;;;19.83;10.18;;;;;;;;;;5015422;28;20053;-48
2022/03/13 09:02:36;;;;;;;18.70;9.07;;;;;;;;;;5015034;28;20485;-50
2022/03/13 09:05:03;;;;;;;14.50;9.10;;;;;;;;;;5014014;28;20025;-51
2022/03/13 09:07:29;;;;;;;17.33;10.07;;;;;;;;;;5014859;28;20021;-49
2022/03/13 09:09:55;;;;;;;18.13;10.05;;;;;;;;;;5015405;28;20036;-45
2022/03/13 09:12:21;;;;;;;20.08;10.38;;;;;;;;;;5015371;28;20022;-47
2022/03/13 09:14:47;;;;;;;16.90;8.30;;;;;;;;;;5014816;28;20075;-47
2022/03/13 09:17:15;;;;;;;15.10;7.75;;;;;;;;;;5015338;28;20053;-48
2022/03/13 09:19:42;;;;;;;11.30;7.20;;;;;;;;;;5013461;28;20108;-46
2022/03/13 09:22:08;;;;;;;13.18;7.60;;;;;;;;;;5014928;28;20100;-45
2022/03/13 09:24:35;;;;;;;15.95;7.80;;;;;;;;;;5015154;28;20050;-50
2022/03/13 09:27:01;;;;;;;19.40;9.80;;;;;;;;;;5014854;28;20100;-46
2022/03/13 09:29:27;;;;;;;16.05;9.02;;;;;;;;;;5015043;28;20026;-46
2022/03/13 09:31:53;;;;;;;15.27;8.23;;;;;;;;;;5014934;28;20041;-51
2022/03/13 09:34:19;;;;;;;12.98;7.35;;;;;;;;;;5014111;28;20022;-49
2022/03/13 09:36:46;;;;;;;15.10;7.63;;;;;;;;;;5014986;28;20026;-47
2022/03/13 09:39:12;;;;;;;24.27;11.73;;;;;;;;;;5015086;28;20117;-51
2022/03/13 09:41:38;;;;;;;15.40;8.43;;;;;;;;;;5014861;28;20041;-50
2022/03/13 09:44:07;;;;;;;15.77;8.80;;;;;;;;;;5015127;28;20018;-47
2022/03/13 09:46:34;;;;;;;18.67;9.50;;;;;;;;;;5014977;28;20108;-48
2022/03/13 09:49:00;;;;;;;14.88;9.07;;;;;;;;;;5014870;28;20056;-48
2022/03/13 09:51:27;;;;;;;17.58;10.25;;;;;;;;;;5015208;28;20071;-50
2022/03/13 09:53:53;;;;;;;52.28;22.30;;;;;;;;;;5015744;28;20038;-52
2022/03/13 09:56:19;;;;;;;38.65;17.65;;;;;;;;;;5014598;28;20021;-51
2022/03/13 09:58:46;;;;;;;107.20;37.15;;;;;;;;;;5015047;28;20030;-51
2022/03/13 10:01:12;;;;;;;77.10;28.48;;;;;;;;;;5014837;28;20399;-46
2022/03/13 10:03:39;;;;;;;29.52;14.05;;;;;;;;;;5014557;28;20017;-49
2022/03/13 10:06:05;;;;;;;23.98;13.38;;;;;;;;;;5014447;28;20022;-51
2022/03/13 10:08:32;;;;;;;22.92;13.52;;;;;;;;;;5014678;28;20483;-51
2022/03/13 10:10:59;;;;;;;20.50;12.82;;;;;;;;;;5014288;28;20133;-48
2022/03/13 10:13:35;;;;;;;26.48;13.65;;;;;;;;;;5014641;28;20029;-51
2022/03/13 10:16:01;;;;;;;24.40;11.25;;;;;;;;;;5014454;28;20026;-50
2022/03/13 10:18:28;;;;;;;19.00;10.50;;;;;;;;;;5013947;28;20566;-49
2022/03/13 10:20:55;;;;;;;24.52;10.63;;;;;;;;;;5014434;28;20036;-50
2022/03/13 10:23:22;;;;;;;14.90;9.18;;;;;;;;;;5012543;28;20513;-52
2022/03/13 10:25:52;;;;;;;55.38;23.95;;;;;;;;;;4999242;28;20041;-51
2022/03/13 10:28:26;;;;;;;22.10;12.83;;;;;;;;;;4995354;28;20459;-47
2022/03/13 10:30:56;;;;;;;46.63;20.90;;;;;;;;;;4998195;28;20497;-49
2022/03/13 10:33:23;;;;;;;23.42;14.15;;;;;;;;;;4998599;28;20030;-51
2022/03/13 10:35:49;;;;;;;27.40;14.52;;;;;;;;;;4994874;28;20029;-52
2022/03/13 10:38:15;;;;;;;21.48;12.70;;;;;;;;;;4994214;28;20026;-50
2022/03/13 10:40:42;;;;;;;23.10;13.23;;;;;;;;;;4994082;28;20073;-49
2022/03/13 10:43:09;;;;;;;22.73;14.50;;;;;;;;;;4994201;28;20026;-47
2022/03/13 10:45:39;;;;;;;19.70;12.32;;;;;;;;;;4992990;28;20467;-47
2022/03/13 10:48:28;;;;;;;15.90;10.52;;;;;;;;;;4994471;28;20026;-54
2022/03/13 10:50:55;;;;;;;17.05;10.55;;;;;;;;;;4994268;28;20050;-49
2022/03/13 10:53:21;;;;;;;16.85;10.77;;;;;;;;;;4993781;28;20045;-51
2022/03/13 10:56:07;;;;;;;16.00;10.70;;;;;;;;;;4994383;28;20037;-53
2022/03/13 10:58:38;;;;;;;19.42;11.55;;;;;;;;;;4993962;28;20357;-50
2022/03/13 11:01:07;;;;;;;19.20;11.27;;;;;;;;;;4994356;28;20031;-49
2022/03/13 11:03:37;;;;;;;19.02;12.48;;;;;;;;;;4994209;28;20034;-52
2022/03/13 11:06:04;;;;;;;44.30;20.98;;;;;;;;;;4993992;28;20069;-49
2022/03/13 11:08:31;;;;;;;41.80;20.73;;;;;;;;;;4993882;28;20026;-50
2022/03/13 11:10:58;;;;;;;29.45;16.02;;;;;;;;;;4993799;28;20030;-52
2022/03/13 11:13:27;;;;;;;67.13;32.45;;;;;;;;;;4993814;28;20084;-52
2022/03/13 11:15:55;;;;;;;82.05;39.28;;;;;;;;;;4994092;28;20054;-51
2022/03/13 11:18:23;;;;;;;21.85;14.63;;;;;;;;;;4994141;28;20034;-52
2022/03/13 11:20:49;;;;;;;24.45;14.98;;;;;;;;;;4994100;28;20027;-50
2022/03/13 11:23:17;;;;;;;20.33;14.20;;;;;;;;;;4993958;28;20471;-50
2022/03/13 11:25:44;;;;;;;27.70;14.32;;;;;;;;;;4993793;28;20061;-53
2022/03/13 11:28:10;;;;;;;21.33;13.73;;;;;;;;;;4993878;28;20023;-52
2022/03/13 11:30:37;;;;;;;14.85;10.88;;;;;;;;;;4993962;28;20030;-52
2022/03/13 11:33:04;;;;;;;15.63;11.23;;;;;;;;;;4994043;28;20340;-48
2022/03/13 11:35:31;;;;;;;19.95;13.40;;;;;;;;;;4983626;28;20023;-52
2022/03/13 11:38:03;;;;;;;25.38;14.82;;;;;;;;;;4974221;28;20037;-53
2022/03/13 11:40:34;;;;;;;21.90;15.38;;;;;;;;;;4974289;28;20045;-49
2022/03/13 11:43:11;;;;;;;18.63;10.43;;;;;;;;;;4974472;28;20023;-53
2022/03/13 11:45:39;;;;;;;14.82;10.18;;;;;;;;;;4974252;28;20027;-49
2022/03/13 11:48:05;;;;;;;19.75;12.05;;;;;;;;;;4974168;28;20345;-47
2022/03/13 11:50:48;;;;;;;16.75;11.15;;;;;;;;;;4974501;28;20057;-50
2022/03/13 11:53:18;;;;;;;13.40;9.82;;;;;;;;;;4981641;28;20026;-52
2022/03/13 11:56:02;;;;;;;22.35;11.68;;;;;;;;;;5002325;28;20018;-55
2022/03/13 11:58:47;;;;;;;86.03;28.63;;;;;;;;;;4997143;28;20499;-55
2022/03/13 12:01:20;;;;;;;20.70;11.20;;;;;;;;;;4996776;28;20040;-54
2022/03/13 12:04:03;;;;;;;22.17;14.93;;;;;;;;;;4998218;28;20162;-54
2022/03/13 12:06:48;;;;;;;28.15;13.18;;;;;;;;;;4997490;28;20025;-49
2022/03/13 12:09:15;;;;;;;21.50;13.73;;;;;;;;;;4996744;28;20484;-53
2022/03/13 12:11:44;;;;;;;35.72;17.75;;;;;;;;;;4997043;28;20061;-49
2022/03/13 12:14:11;;;;;;;20.02;10.77;;;;;;;;;;4996891;28;20022;-49
2022/03/13 12:16:38;;;;;;;22.67;10.90;;;;;;;;;;4996544;28;20558;-50
2022/03/13 12:19:05;;;;;;;13.40;8.40;;;;;;;;;;4997044;28;20036;-51
2022/03/13 12:21:32;;;;;;;11.10;7.40;;;;;;;;;;4996968;28;20501;-53
2022/03/13 12:24:18;;;;;;;9.25;7.30;;;;;;;;;;4996695;28;20053;-48
2022/03/13 12:26:46;;;;;;;42.83;22.17;;;;;;;;;;4997017;28;20376;-52
2022/03/13 12:29:18;;;;;;;51.05;28.00;;;;;;;;;;4996628;28;20034;-47
2022/03/13 12:31:49;;;;;;;9.55;6.45;;;;;;;;;;4997098;28;20033;-52
2022/03/13 12:34:25;;;;;;;10.20;7.23;;;;;;;;;;4997097;28;20036;-54
2022/03/13 12:36:53;;;;;;;8.75;6.30;;;;;;;;;;4995175;28;20314;-50
2022/03/13 12:39:20;;;;;;;11.20;6.97;;;;;;;;;;4996699;28;20031;-51
2022/03/13 12:41:55;;;;;;;7.82;5.65;;;;;;;;;;4996722;28;20061;-51
2022/03/13 12:44:22;;;;;;;21.38;13.55;;;;;;;;;;4996543;28;20452;-54
2022/03/13 12:46:57;;;;;;;9.65;6.88;;;;;;;;;;4996572;28;20050;-48
2022/03/13 12:49:36;;;;;;;13.50;9.30;;;;;;;;;;4996419;28;20030;-53
2022/03/13 12:52:02;;;;;;;8.82;6.03;;;;;;;;;;4996010;28;20443;-53
2022/03/13 12:54:30;;;;;;;7.93;5.47;;;;;;;;;;4995217;28;20022;-49
2022/03/13 12:57:00;;;;;;;12.90;9.05;;;;;;;;;;4996188;28;20589;-49
2022/03/13 12:59:30;;;;;;;8.77;6.05;;;;;;;;;;4995892;28;20096;-49
2022/03/13 13:02:04;;;;;;;8.60;6.22;;;;;;;;;;4987224;28;20026;-53
2022/03/13 13:04:31;;;;;;;10.38;6.95;;;;;;;;;;4989733;28;20019;-51
2022/03/13 13:06:57;;;;;;;13.02;7.72;;;;;;;;;;4995783;28;20041;-45
2022/03/13 13:09:30;;;;;;;13.43;7.20;;;;;;;;;;4995377;28;20029;-49
2022/03/13 13:11:56;;;;;;;23.80;12.02;;;;;;;;;;4995715;28;20039;-54
2022/03/13 13:14:24;;;;;;;12.60;7.20;;;;;;;;;;4996104;28;20533;-48
2022/03/13 13:16:50;;;;;;;11.48;6.47;;;;;;;;;;4995615;28;20349;-50
2022/03/13 13:19:16;;;;;;;8.95;6.35;;;;;;;;;;4995155;28;20026;-50
2022/03/13 13:21:43;;;;;;;8.30;6.20;;;;;;;;;;4995903;28;20380;-52
2022/03/13 13:24:19;;;;;;;12.80;7.78;;;;;;;;;;4995789;28;20031;-51
2022/03/13 13:26:45;;;;;;;10.55;7.03;;;;;;;;;;4995570;28;20106;-51
2022/03/13 13:29:11;;;;;;;7.57;5.70;;;;;;;;;;4995124;28;20026;-49
2022/03/13 13:31:38;;;;;;;6.68;4.90;;;;;;;;;;4995658;28;20126;-50
2022/03/13 13:34:14;;;;;;;11.00;5.82;;;;;;;;;;4994168;28;20105;-51
2022/03/13 13:36:40;;;;;;;9.77;5.95;;;;;;;;;;4994405;28;20407;-49
2022/03/13 13:39:07;;;;;;;7.97;5.68;;;;;;;;;;4995468;28;20037;-51
2022/03/13 13:41:34;;;;;;;12.80;8.32;;;;;;;;;;4995261;28;20030;-47
2022/03/13 13:44:00;;;;;;;8.57;5.80;;;;;;;;;;4995281;28;20412;-48
2022/03/13 13:46:31;;;;;;;7.53;5.63;;;;;;;;;;4995186;28;20146;-52
2022/03/13 13:48:57;;;;;;;9.17;5.77;;;;;;;;;;4995411;28;20057;-49
2022/03/13 13:51:30;;;;;;;11.27;6.07;;;;;;;;;;4993593;28;20124;-48
2022/03/13 13:53:59;;;;;;;10.02;6.70;;;;;;;;;;4993706;28;20027;-48
2022/03/13 13:56:28;;;;;;;10.18;6.88;;;;;;;;;;4994906;28;20022;-50
2022/03/13 13:58:54;;;;;;;9.65;6.53;;;;;;;;;;4994368;28;20675;-45
2022/03/13 14:01:22;;;;;;;8.90;6.10;;;;;;;;;;4993834;28;20030;-50
2022/03/13 14:03:49;;;;;;;9.13;6.05;;;;;;;;;;4994870;28;20387;-54
2022/03/13 14:06:18;;;;;;;9.52;5.78;;;;;;;;;;4993665;28;20077;-51
2022/03/13 14:08:54;;;;;;;11.25;6.72;;;;;;;;;;4993064;28;20022;-49
2022/03/13 14:11:21;;;;;;;7.35;5.47;;;;;;;;;;4994322;28;20082;-47
2022/03/13 14:13:47;;;;;;;11.27;7.07;;;;;;;;;;4994271;28;20022;-47
2022/03/13 14:16:16;;;;;;;9.07;5.70;;;;;;;;;;4994534;28;20030;-49
2022/03/13 14:18:42;;;;;;;10.88;6.07;;;;;;;;;;4994716;28;20478;-51
2022/03/13 14:21:08;;;;;;;8.65;6.30;;;;;;;;;;4994228;28;20471;-46